Time;durP1;ratioP1;P1;durP2;ratioP2;P2;SDS_P1;SDS_P2;PMS_P1;PMS_P2;Temp;Humidity;BMP_temperature;BMP_pressure;BME280_temperature;BME280_humidity;BME280_pressure;Samples;Min_cycle;Max_cycle;Signal;HPM_P1;HPM_P2
2023/04/17 00:01:11;;;;;;;12.70;7.50;;;;;;;;;;5093187;28;20569;-70
2023/04/17 00:03:37;;;;;;;11.00;7.45;;;;;;;;;;5090976;28;20283;-68
2023/04/17 00:06:03;;;;;;;12.90;7.28;;;;;;;;;;5074772;28;20032;-69
2023/04/17 00:08:28;;;;;;;12.10;6.75;;;;;;;;;;5090399;28;20068;-68
2023/04/17 00:10:53;;;;;;;10.20;6.43;;;;;;;;;;5090803;28;20085;-70
2023/04/17 00:13:18;;;;;;;8.60;5.93;;;;;;;;;;5091625;28;20099;-67
2023/04/17 00:15:44;;;;;;;11.27;5.90;;;;;;;;;;5091180;28;20812;-69
2023/04/17 00:18:09;;;;;;;7.82;5.78;;;;;;;;;;5093337;28;20288;-69
2023/04/17 00:20:34;;;;;;;9.10;5.67;;;;;;;;;;5093850;28;20032;-67
2023/04/17 00:23:00;;;;;;;10.18;5.80;;;;;;;;;;5080112;28;20355;-69
2023/04/17 00:25:25;;;;;;;9.83;5.70;;;;;;;;;;5091674;28;20766;-70
2023/04/17 00:27:50;;;;;;;9.15;5.60;;;;;;;;;;5092930;28;20333;-67
2023/04/17 00:30:15;;;;;;;7.90;5.40;;;;;;;;;;5076987;28;20032;-69
2023/04/17 00:32:41;;;;;;;8.88;5.40;;;;;;;;;;5096655;28;20290;-67
2023/04/17 00:35:06;;;;;;;9.23;5.47;;;;;;;;;;5091963;28;20449;-70
2023/04/17 00:37:32;;;;;;;8.50;5.30;;;;;;;;;;5077809;28;20279;-68
2023/04/17 00:39:57;;;;;;;8.10;4.88;;;;;;;;;;5092580;28;20512;-68
2023/04/17 00:42:23;;;;;;;6.57;5.10;;;;;;;;;;5093553;28;20032;-69
2023/04/17 00:44:51;;;;;;;9.32;4.70;;;;;;;;;;5090606;28;20581;-69
2023/04/17 00:47:16;;;;;;;7.10;4.95;;;;;;;;;;5074694;28;20085;-69
2023/04/17 00:49:41;;;;;;;6.07;4.55;;;;;;;;;;5093837;28;20019;-68
2023/04/17 00:52:07;;;;;;;9.38;4.80;;;;;;;;;;5081321;28;20063;-67
2023/04/17 00:54:32;;;;;;;6.50;3.92;;;;;;;;;;5095301;28;20028;-68
2023/04/17 00:57:00;;;;;;;7.67;4.40;;;;;;;;;;5094070;28;20456;-67
2023/04/17 00:59:26;;;;;;;7.40;4.10;;;;;;;;;;5093693;28;20279;-69
2023/04/17 01:01:51;;;;;;;6.00;4.28;;;;;;;;;;5074228;28;20024;-68
2023/04/17 01:04:16;;;;;;;5.77;4.00;;;;;;;;;;5073248;28;20058;-68
2023/04/17 01:06:42;;;;;;;6.87;3.87;;;;;;;;;;5090657;28;20287;-68
2023/04/17 01:09:07;;;;;;;6.07;4.00;;;;;;;;;;5089807;28;20276;-68
2023/04/17 01:11:33;;;;;;;5.38;3.67;;;;;;;;;;5075234;28;20031;-68
2023/04/17 01:13:58;;;;;;;9.57;4.53;;;;;;;;;;5094950;28;20035;-68
2023/04/17 01:16:23;;;;;;;5.03;3.97;;;;;;;;;;5076886;28;20031;-70
2023/04/17 01:18:48;;;;;;;7.47;3.90;;;;;;;;;;5079640;28;20027;-68
2023/04/17 01:21:14;;;;;;;5.93;4.07;;;;;;;;;;5089493;28;20028;-67
2023/04/17 01:23:44;;;;;;;7.65;4.03;;;;;;;;;;5080074;28;20501;-70
2023/04/17 01:26:20;;;;;;;8.68;4.13;;;;;;;;;;5091363;28;20035;-69
2023/04/17 01:28:52;;;;;;;8.85;4.40;;;;;;;;;;5074966;28;20034;-67
2023/04/17 01:31:17;;;;;;;7.57;4.57;;;;;;;;;;5091771;28;20078;-68
2023/04/17 01:33:42;;;;;;;8.10;4.22;;;;;;;;;;5093088;28;20032;-69
2023/04/17 01:36:08;;;;;;;7.25;4.50;;;;;;;;;;5094102;28;20024;-68
2023/04/17 01:38:33;;;;;;;6.05;4.10;;;;;;;;;;5074620;28;20035;-70
2023/04/17 01:40:59;;;;;;;7.45;4.35;;;;;;;;;;5083765;28;20024;-72
2023/04/17 01:43:24;;;;;;;8.27;4.45;;;;;;;;;;5091843;28;20023;-71
2023/04/17 01:45:49;;;;;;;8.70;4.60;;;;;;;;;;5092433;28;20034;-70
2023/04/17 01:48:15;;;;;;;9.30;4.30;;;;;;;;;;5089978;28;20710;-70
2023/04/17 01:50:40;;;;;;;9.30;4.65;;;;;;;;;;5078140;28;20286;-71
2023/04/17 01:53:05;;;;;;;8.90;4.70;;;;;;;;;;5090716;28;20052;-72
2023/04/17 01:55:30;;;;;;;9.10;5.13;;;;;;;;;;5076510;28;20283;-70
2023/04/17 01:57:56;;;;;;;7.43;4.50;;;;;;;;;;5075663;28;20308;-71
2023/04/17 02:00:22;;;;;;;6.97;4.47;;;;;;;;;;5078093;28;20271;-72
2023/04/17 02:02:47;;;;;;;11.20;4.93;;;;;;;;;;5090814;28;20447;-72
2023/04/17 02:05:13;;;;;;;7.40;3.97;;;;;;;9.88;nan;100017.19;5091051;28;20023;-71
2023/04/17 02:07:38;;;;;;;7.57;4.10;;;;;;;;;;5091812;28;20790;-71
2023/04/17 02:10:03;;;;;;;6.20;3.73;;;;;;;;;;5091057;28;20043;-71
2023/04/17 02:12:29;;;;;;;6.80;3.47;;;;;;;;;;5093608;28;20361;-72
2023/04/17 02:14:59;;;;;;;6.00;3.42;;;;;;;;;;5078106;28;20039;-72
2023/04/17 02:17:25;;;;;;;5.57;3.47;;;;;;;;;;5093334;28;20055;-72
2023/04/17 02:19:50;;;;;;;5.57;3.97;;;;;;;;;;5084499;28;20031;-71
2023/04/17 02:22:17;;;;;;;7.80;4.40;;;;;;;;;;5096380;28;20020;-71
2023/04/17 02:24:42;;;;;;;9.15;4.32;;;;;;;;;;5076214;28;20054;-70
2023/04/17 02:27:07;;;;;;;6.10;4.20;;;;;;;;;;5095668;28;20486;-71
2023/04/17 02:29:33;;;;;;;6.30;4.50;;;;;;;;;;5091654;28;20652;-70
2023/04/17 02:31:58;;;;;;;7.30;4.53;;;;;;;;;;5083720;28;20273;-71
2023/04/17 02:34:23;;;;;;;11.73;4.93;;;;;;;;;;5077155;28;20778;-70
2023/04/17 02:36:48;;;;;;;7.83;5.07;;;;;;;;;;5094381;28;20040;-72
2023/04/17 02:39:14;;;;;;;10.03;6.03;;;;;;;;;;5098069;28;20048;-69
2023/04/17 02:41:39;;;;;;;10.50;5.63;;;;;;;;;;5094333;28;21164;-71
2023/04/17 02:44:04;;;;;;;9.38;5.15;;;;;;;;;;5092930;28;20032;-70
2023/04/17 02:46:30;;;;;;;8.40;4.90;;;;;;;;;;5094342;28;20988;-71
2023/04/17 02:48:55;;;;;;;9.03;5.07;;;;;;;;;;5097541;28;20028;-67
2023/04/17 02:51:20;;;;;;;10.63;5.43;;;;;;;;;;5097331;28;20024;-70
2023/04/17 02:53:47;;;;;;;10.30;5.57;;;;;;;;;;5094733;28;20346;-70
2023/04/17 02:56:13;;;;;;;9.82;5.50;;;;;;;;;;5097356;28;20765;-71
2023/04/17 02:58:38;;;;;;;9.30;6.10;;;;;;;;;;5075683;28;20024;-68
2023/04/17 03:01:03;;;;;;;8.68;5.22;;;;;;;;;;5079256;28;20711;-70
2023/04/17 03:03:33;;;;;;;9.55;5.38;;;;;;;;;;5097445;28;20024;-70
2023/04/17 03:05:59;;;;;;;10.20;5.53;;;;;;;;;;5094223;28;20488;-71
2023/04/17 03:08:24;;;;;;;7.97;5.15;;;;;;;;;;5082411;28;20104;-71
2023/04/17 03:10:49;;;;;;;9.27;5.30;;;;;;;;;;5094191;28;20039;-71
2023/04/17 03:13:14;;;;;;;9.30;5.87;;;;;;;;;;5096488;28;20264;-72
2023/04/17 03:15:40;;;;;;;9.50;5.70;;;;;;;;;;5094867;28;20272;-70
2023/04/17 03:18:05;;;;;;;8.50;5.50;;;;;;;;;;5078501;28;20032;-71
2023/04/17 03:20:30;;;;;;;9.07;5.77;;;;;;;;;;5090225;28;21433;-72
2023/04/17 03:22:55;;;;;;;7.93;5.13;;;;;;;;;;5095759;28;20288;-70
2023/04/17 03:25:21;;;;;;;6.97;5.10;;;;;;;;;;5090385;28;20032;-70
2023/04/17 03:27:46;;;;;;;8.30;5.38;;;;;;;;;;5092836;28;20031;-69
2023/04/17 03:30:11;;;;;;;8.73;5.17;;;;;;;;;;5096341;28;20030;-69
2023/04/17 03:32:36;;;;;;;7.30;4.63;;;;;;;;;;5092362;28;20402;-69
2023/04/17 03:35:02;;;;;;;8.77;5.30;;;;;;;;;;5092510;28;20027;-69
2023/04/17 03:37:28;;;;;;;9.05;4.82;;;;;;;;;;5078562;28;20038;-67
2023/04/17 03:39:54;;;;;;;9.32;4.53;;;;;;;;;;5092674;28;20035;-69
2023/04/17 03:42:19;;;;;;;8.43;4.75;;;;;;;;;;5076692;28;20028;-69
2023/04/17 03:44:45;;;;;;;7.80;5.03;;;;;;;9.47;nan;100026.78;5076389;28;20470;-69
2023/04/17 03:47:10;;;;;;;9.98;4.70;;;;;;;;;;5091577;27;20497;-68
2023/04/17 03:49:36;;;;;;;8.93;4.90;;;;;;;;;;5076451;28;20023;-69
2023/04/17 03:52:02;;;;;;;8.98;4.88;;;;;;;;;;5093042;28;20119;-69
2023/04/17 03:54:28;;;;;;;7.75;4.70;;;;;;;;;;5076594;28;20023;-67
2023/04/17 03:56:54;;;;;;;11.57;6.22;;;;;;;;;;5076113;28;20163;-68
2023/04/17 03:59:20;;;;;;;6.40;4.93;;;;;;;;;;5093865;28;20031;-69
2023/04/17 04:01:45;;;;;;;8.52;5.75;;;;;;;9.71;nan;100027.59;5072000;28;20034;-69
2023/04/17 04:04:10;;;;;;;11.10;5.30;;;;;;;;;;5094078;28;20493;-68
2023/04/17 04:06:36;;;;;;;10.35;5.95;;;;;;;;;;5072798;28;20080;-68
2023/04/17 04:09:02;;;;;;;11.00;5.95;;;;;;;;;;5095995;28;20168;-69
2023/04/17 04:11:27;;;;;;;7.82;5.13;;;;;;;;;;5093399;28;20027;-70
2023/04/17 04:13:53;;;;;;;7.72;4.35;;;;;;;;;;5084005;28;20537;-70
2023/04/17 04:16:18;;;;;;;7.35;4.63;;;;;;;;;;5072258;28;20515;-71
2023/04/17 04:18:44;;;;;;;5.95;4.50;;;;;;;9.86;nan;100044.75;5073107;28;20032;-70
2023/04/17 04:21:10;;;;;;;7.63;4.60;;;;;;;;;;5082885;28;20035;-68
2023/04/17 04:23:39;;;;;;;10.80;4.88;;;;;;;;;;5076827;28;20080;-69
2023/04/17 04:26:04;;;;;;;8.45;4.57;;;;;;;;;;5078699;28;20031;-69
2023/04/17 04:28:29;;;;;;;9.05;4.20;;;;;;;;;;5075965;28;20607;-70
2023/04/17 04:30:57;;;;;;;11.50;5.15;;;;;;;;;;5092857;28;20136;-69
2023/04/17 04:33:23;;;;;;;13.95;7.15;;;;;;;;;;5092079;28;20168;-72
2023/04/17 04:35:50;;;;;;;13.30;5.90;;;;;;;;;;5073822;28;20112;-68
2023/04/17 04:38:17;;;;;;;9.68;5.25;;;;;;;;;;5075606;28;20551;-66
2023/04/17 04:40:50;;;;;;;10.02;5.05;;;;;;;;;;5093103;28;20050;-69
2023/04/17 04:43:16;;;;;;;8.15;5.00;;;;;;;;;;5080915;28;20146;-69
2023/04/17 04:45:41;;;;;;;6.18;4.10;;;;;;;;;;5081470;28;20216;-69
2023/04/17 04:48:07;;;;;;;7.60;4.50;;;;;;;;;;5091862;28;20027;-68
2023/04/17 04:50:32;;;;;;;6.82;4.50;;;;;;;;;;5083151;28;20078;-69
2023/04/17 04:52:58;;;;;;;8.05;4.30;;;;;;;;;;5091685;28;20678;-68
2023/04/17 04:55:25;;;;;;;7.07;4.20;;;;;;;;;;5080803;28;20044;-69
2023/04/17 04:57:53;;;;;;;6.80;4.28;;;;;;;;;;5078219;28;20193;-68
2023/04/17 05:00:19;;;;;;;7.00;4.10;;;;;;;;;;5073698;28;20105;-69
2023/04/17 05:02:44;;;;;;;7.43;4.10;;;;;;;;;;5095034;28;20044;-69
2023/04/17 05:05:11;;;;;;;8.50;4.63;;;;;;;;;;5081814;28;20031;-69
2023/04/17 05:07:36;;;;;;;7.78;4.55;;;;;;;;;;5070021;28;20018;-69
2023/04/17 05:10:01;;;;;;;9.27;4.20;;;;;;;;;;5085725;28;20028;-68
2023/04/17 05:12:27;;;;;;;9.20;4.25;;;;;;;;;;5079990;28;20291;-67
2023/04/17 05:14:52;;;;;;;11.77;5.07;;;;;;;;;;5079577;28;20028;-69
2023/04/17 05:17:17;;;;;;;7.18;4.47;;;;;;;;;;5078147;28;20139;-66
2023/04/17 05:19:43;;;;;;;7.35;4.57;;;;;;;;;;5091361;28;20085;-69
2023/04/17 05:22:08;;;;;;;7.20;4.20;;;;;;;;;;5091343;28;20401;-68
2023/04/17 05:24:33;;;;;;;7.32;4.57;;;;;;;;;;5093664;28;20284;-68
2023/04/17 05:26:58;;;;;;;8.02;4.60;;;;;;;;;;5091056;28;20047;-69
2023/04/17 05:29:24;;;;;;;7.87;4.80;;;;;;;;;;5091853;28;20026;-68
2023/04/17 05:31:49;;;;;;;7.97;4.80;;;;;;;;;;5075352;28;20032;-68
2023/04/17 05:34:15;;;;;;;9.82;5.50;;;;;;;;;;5091421;28;20685;-69
2023/04/17 05:36:40;;;;;;;9.27;4.77;;;;;;;;;;5092320;28;20469;-69
2023/04/17 05:39:07;;;;;;;10.30;5.05;;;;;;;;;;5091879;28;20027;-69
2023/04/17 05:41:33;;;;;;;10.40;5.25;;;;;;;;;;5076105;28;20027;-69
2023/04/17 05:43:58;;;;;;;7.80;4.90;;;;;;;;;;5093730;28;20146;-71
2023/04/17 05:46:23;;;;;;;6.90;4.40;;;;;;;;;;5094018;28;20034;-71
2023/04/17 05:48:48;;;;;;;5.80;3.73;;;;;;;;;;5091682;28;20016;-71
2023/04/17 05:51:14;;;;;;;10.68;4.28;;;;;;;;;;5092324;28;20301;-71
2023/04/17 05:53:39;;;;;;;6.10;3.70;;;;;;;;;;5099152;28;20036;-71
2023/04/17 05:56:04;;;;;;;8.70;4.43;;;;;;;;;;5087805;28;20034;-70
2023/04/17 05:58:30;;;;;;;8.27;4.60;;;;;;;;;;5085551;28;20043;-69
2023/04/17 06:00:55;;;;;;;9.17;4.87;;;;;;;;;;5080278;28;20316;-71
2023/04/17 06:03:21;;;;;;;7.13;4.25;;;;;;;;;;5075576;28;20769;-71
2023/04/17 06:05:47;;;;;;;7.97;4.32;;;;;;;;;;5098345;27;20031;-71
2023/04/17 06:08:12;;;;;;;7.32;4.13;;;;;;;;;;5094621;28;20027;-73
2023/04/17 06:10:37;;;;;;;6.05;4.15;;;;;;;;;;5079613;27;20036;-70
2023/04/17 06:13:03;;;;;;;5.25;3.45;;;;;;;;;;5096276;28;20477;-71
2023/04/17 06:15:28;;;;;;;6.03;3.50;;;;;;;;;;5094576;28;20046;-70
2023/04/17 06:17:53;;;;;;;5.30;3.53;;;;;;;;;;5077203;28;20110;-69
2023/04/17 06:20:18;;;;;;;6.28;3.72;;;;;;;;;;5093089;28;20336;-70
2023/04/17 06:22:45;;;;;;;5.97;3.17;;;;;;;;;;5081756;28;20080;-70
2023/04/17 06:25:11;;;;;;;5.80;3.40;;;;;;;;;;5075400;28;20279;-71
2023/04/17 06:27:36;;;;;;;5.90;3.58;;;;;;;;;;5081359;28;20136;-70
2023/04/17 06:30:01;;;;;;;5.60;3.17;;;;;;;;;;5086951;28;20077;-70
2023/04/17 06:32:26;;;;;;;4.90;2.97;;;;;;;;;;5098476;27;20453;-71
2023/04/17 06:34:52;;;;;;;4.67;2.93;;;;;;;;;;5092356;27;20020;-70
2023/04/17 06:37:17;;;;;;;2.97;2.67;;;;;;;;;;5094910;27;20058;-71
2023/04/17 06:39:42;;;;;;;5.47;2.53;;;;;;;;;;5096135;27;20035;-71
2023/04/17 06:42:07;;;;;;;3.73;2.53;;;;;;;;;;5097478;27;20035;-70
2023/04/17 06:44:33;;;;;;;2.80;2.30;;;;;;;;;;5096209;27;20062;-71
2023/04/17 06:47:02;;;;;;;4.43;2.97;;;;;;;;;;5095338;28;20615;-71
2023/04/17 06:49:27;;;;;;;5.97;2.50;;;;;;;;;;5095748;27;20276;-70
2023/04/17 06:51:52;;;;;;;4.93;2.90;;;;;;;;;;5096433;28;20028;-69
2023/04/17 06:54:18;;;;;;;3.95;2.67;;;;;;;;;;5080094;28;20463;-70
2023/04/17 06:56:43;;;;;;;4.30;2.93;;;;;;;;;;5098221;27;20131;-71
2023/04/17 06:59:08;;;;;;;4.55;3.17;;;;;;;;;;5079745;28;20038;-70
2023/04/17 07:01:34;;;;;;;4.85;2.92;;;;;;;;;;5093665;28;20103;-69
2023/04/17 07:04:00;;;;;;;5.03;3.05;;;;;;;;;;5094184;28;20031;-71
2023/04/17 07:06:25;;;;;;;5.85;3.55;;;;;;;;;;5094653;27;20103;-69
2023/04/17 07:08:50;;;;;;;4.93;3.28;;;;;;;;;;5092799;28;20423;-70
2023/04/17 07:11:16;;;;;;;6.30;3.60;;;;;;;;;;5094787;27;20470;-69
2023/04/17 07:13:41;;;;;;;5.90;3.10;;;;;;;;;;5079302;28;20272;-69
2023/04/17 07:16:07;;;;;;;5.20;3.03;;;;;;;;;;5092888;28;20102;-69
2023/04/17 07:18:32;;;;;;;5.22;2.88;;;;;;;;;;5077802;28;20799;-68
2023/04/17 07:20:57;;;;;;;4.40;3.00;;;;;;;;;;5093583;28;20473;-68
2023/04/17 07:23:23;;;;;;;4.30;3.00;;;;;;;;;;5092499;27;20565;-75
2023/04/17 07:25:48;;;;;;;6.10;3.28;;;;;;;;;;5077742;28;20345;-75
2023/04/17 07:28:13;;;;;;;4.55;2.72;;;;;;;;;;5095123;27;20084;-76
2023/04/17 07:30:41;;;;;;;7.60;2.90;;;;;;;;;;5080735;28;20050;-76
2023/04/17 07:33:06;;;;;;;5.07;2.80;;;;;;;;;;5095300;28;20286;-75
2023/04/17 07:35:31;;;;;;;4.07;2.73;;;;;;;;;;5094380;28;20565;-76
2023/04/17 07:37:58;;;;;;;5.50;2.93;;;;;;;;;;5095577;28;20280;-75
2023/04/17 07:40:23;;;;;;;6.10;3.08;;;;;;;;;;5079493;28;20034;-73
2023/04/17 07:42:49;;;;;;;4.93;3.20;;;;;;;;;;5095237;28;20020;-75
2023/04/17 07:45:14;;;;;;;8.80;7.45;;;;;;;;;;5093257;28;20024;-75
2023/04/17 07:47:39;;;;;;;18.13;8.63;;;;;;;;;;5078758;28;20028;-74
2023/04/17 07:50:05;;;;;;;10.37;5.33;;;;;;;;;;5091890;28;20306;-75
2023/04/17 07:52:30;;;;;;;8.88;4.30;;;;;;;;;;5075407;28;20046;-75
2023/04/17 07:54:55;;;;;;;4.47;3.13;;;;;;;;;;5094860;28;20030;-74
2023/04/17 07:57:21;;;;;;;6.07;2.58;;;;;;;;;;5092605;28;20062;-74
2023/04/17 07:59:47;;;;;;;5.00;2.60;;;;;;;;;;5092250;28;20028;-75
2023/04/17 08:02:12;;;;;;;4.40;2.57;;;;;;;;;;5092110;28;20039;-74
2023/04/17 08:04:38;;;;;;;3.07;2.40;;;;;;;;;;5094221;28;20778;-72
2023/04/17 08:07:05;;;;;;;4.57;2.58;;;;;;;;;;5091825;28;20279;-72
2023/04/17 08:09:30;;;;;;;4.57;2.60;;;;;;;;;;5074801;28;20088;-71
2023/04/17 08:11:56;;;;;;;2.88;2.28;;;;;;;;;;5073538;28;20031;-73
2023/04/17 08:14:22;;;;;;;5.43;2.42;;;;;;;;;;5090533;28;20031;-73
2023/04/17 08:16:48;;;;;;;6.55;2.22;;;;;;;;;;5092424;28;20066;-73
2023/04/17 08:19:13;;;;;;;2.75;2.22;;;;;;;;;;5094320;28;20028;-73
2023/04/17 08:21:39;;;;;;;5.20;2.27;;;;;;;;;;5075617;28;20028;-72
2023/04/17 08:24:05;;;;;;;3.97;1.98;;;;;;;;;;5094314;27;20027;-72
2023/04/17 08:26:31;;;;;;;3.67;2.50;;;;;;;;;;5097747;27;20072;-72
2023/04/17 08:29:00;;;;;;;2.72;2.22;;;;;;;;;;5093361;28;20102;-72
2023/04/17 08:31:25;;;;;;;;;;;;;;;;;;5080373;28;20035;-73
2023/04/17 08:33:50;;;;;;;3.70;2.33;;;;;;;;;;5091909;28;19923;-73
2023/04/17 08:36:15;;;;;;;4.03;2.40;;;;;;;;;;5095223;27;20031;-73
2023/04/17 08:38:43;;;;;;;3.90;2.50;;;;;;;;;;5091372;27;20481;-71
2023/04/17 08:41:12;;;;;;;4.45;2.30;;;;;;;;;;5094673;28;20789;-73
2023/04/17 08:43:39;;;;;;;4.10;2.53;;;;;;;;;;5078231;28;20059;-73
2023/04/17 08:46:04;;;;;;;2.30;1.90;;;;;;;;;;5092402;28;20023;-73
2023/04/17 08:48:29;;;;;;;3.30;2.13;;;;;;;;;;5096326;28;20028;-73
2023/04/17 08:50:55;;;;;;;2.78;2.20;;;;;;;;;;5094329;28;20035;-72
2023/04/17 08:53:20;;;;;;;4.07;1.98;;;;;;;;;;5075608;28;20036;-73
2023/04/17 08:55:46;;;;;;;4.05;2.22;;;;;;;;;;5090985;28;20031;-73
2023/04/17 08:58:12;;;;;;;3.28;2.15;;;;;;;;;;5093453;28;20090;-72
2023/04/17 09:00:41;;;;;;;3.80;1.90;;;;;;;;;;5078179;28;20038;-72
2023/04/17 09:03:10;;;;;;;3.60;2.30;;;;;;;;;;5076074;28;20055;-72
2023/04/17 09:05:36;;;;;;;3.63;2.58;;;;;;;;;;5077116;28;20458;-73
2023/04/17 09:08:06;;;;;;;5.43;2.22;;;;;;;;;;5075431;28;20028;-72
2023/04/17 09:10:39;;;;;;;3.47;2.00;;;;;;;;;;5090725;27;20024;-72
2023/04/17 09:13:05;;;;;;;3.40;2.40;;;;;;;;;;5091767;28;20556;-70
2023/04/17 09:15:35;;;;;;;3.58;2.20;;;;;;;;;;5095767;28;20031;-70
2023/04/17 09:18:00;;;;;;;3.22;2.03;;;;;;;15.30;nan;100096.03;5073223;28;20035;-70
2023/04/17 09:20:26;;;;;;;4.38;2.10;;;;;;;;;;5086326;28;21275;-70
2023/04/17 09:23:02;;;;;;;3.17;2.25;;;;;;;15.54;nan;100104.28;5095884;28;20026;-70
2023/04/17 09:25:28;;;;;;;2.75;2.00;;;;;;;;;;5091123;28;20815;-70
2023/04/17 09:27:54;;;;;;;1.85;1.55;;;;;;;;;;5099537;28;20107;-70
2023/04/17 09:30:20;;;;;;;3.22;2.25;;;;;;;;;;5095846;28;20038;-69
2023/04/17 09:32:45;;;;;;;2.40;1.70;;;;;;;;;;5099424;27;20111;-70
2023/04/17 09:35:21;;;;;;;4.03;1.97;;;;;;;;;;5090089;28;20142;-71
2023/04/17 09:37:54;;;;;;;2.88;2.08;;;;;;;;;;5098757;28;20307;-71
2023/04/17 09:40:20;;;;;;;2.40;1.90;;;;;;;;;;5079772;28;20565;-71
2023/04/17 09:42:55;;;;;;;2.15;1.80;;;;;;;;;;5096149;27;20115;-70
2023/04/17 09:45:21;;;;;;;5.85;3.33;;;;;;;;;;5096916;28;20024;-70
2023/04/17 09:47:47;;;;;;;3.10;2.67;;;;;;;;;;5099247;28;20036;-70
2023/04/17 09:50:15;;;;;;;2.55;2.28;;;;;;;;;;5098137;27;20028;-70
2023/04/17 09:52:41;;;;;;;2.50;1.80;;;;;;;;;;5097400;28;21001;-73
2023/04/17 09:55:09;;;;;;;4.10;1.88;;;;;;;;;;5096842;28;20028;-75
2023/04/17 09:57:36;;;;;;;2.95;1.65;;;;;;;;;;5096281;28;20047;-75
2023/04/17 10:00:04;;;;;;;2.33;1.60;;;;;;;;;;5097838;27;20440;-75
2023/04/17 10:02:30;;;;;;;3.38;1.92;;;;;;;;;;5081443;28;20597;-74
2023/04/17 10:04:55;;;;;;;3.25;2.00;;;;;;;;;;5079240;28;20036;-73
2023/04/17 10:07:21;;;;;;;2.30;1.70;;;;;;;;;;5085100;28;20051;-74
2023/04/17 10:09:46;;;;;;;3.13;1.83;;;;;;;;;;5095704;28;20024;-74
2023/04/17 10:12:15;;;;;;;3.20;1.80;;;;;;;;;;5088346;28;20085;-74
2023/04/17 10:14:42;;;;;;;;;;;;;;;;;;5096341;28;20061;-73
2023/04/17 10:17:23;;;;;;;4.78;1.80;;;;;;;;;;5080218;28;19957;-74
2023/04/17 10:19:49;;;;;;;3.03;1.73;;;;;;;;;;5085343;28;20086;-73
2023/04/17 10:22:14;;;;;;;3.00;2.03;;;;;;;;;;5094462;28;20077;-73
2023/04/17 10:24:40;;;;;;;2.43;2.10;;;;;;;;;;5098358;27;20047;-72
2023/04/17 10:27:23;;;;;;;6.65;2.40;;;;;;;;;;5094380;27;20406;-72
2023/04/17 10:29:55;;;;;;;4.43;2.30;;;;;;;16.77;nan;100091.56;5097350;28;20073;-73
2023/04/17 10:32:22;;;;;;;2.25;1.83;;;;;;;;;;5096317;28;20054;-73
2023/04/17 10:34:48;;;;;;;4.13;1.90;;;;;;;;;;5077744;28;20028;-72
2023/04/17 10:37:16;;;;;;;3.95;2.00;;;;;;;;;;5096677;28;20020;-72
2023/04/17 10:40:09;;;;;;;3.10;1.95;;;;;;;;;;5093939;27;20118;-69
2023/04/17 10:42:34;;;;;;;1.95;1.42;;;;;;;;;;5079803;28;20036;-70
2023/04/17 10:45:03;;;;;;;1.33;1.15;;;;;;;;;;5077194;28;20383;-73
2023/04/17 10:47:32;;;;;;;2.65;1.25;;;;;;;;;;5094582;28;20106;-73
2023/04/17 10:49:58;;;;;;;1.77;1.08;;;;;;;;;;5093815;28;20038;-73
2023/04/17 10:52:44;;;;;;;1.33;1.10;;;;;;;;;;5095874;28;20106;-73
2023/04/17 10:55:14;;;;;;;2.90;1.40;;;;;;;;;;5078371;28;20626;-73
2023/04/17 10:57:46;;;;;;;2.38;1.60;;;;;;;;;;5084027;28;20418;-73
2023/04/17 11:00:12;;;;;;;2.88;1.60;;;;;;;;;;5086320;28;20024;-73
2023/04/17 11:02:38;;;;;;;2.47;1.40;;;;;;;;;;5096961;28;20031;-73
2023/04/17 11:05:06;;;;;;;2.75;1.27;;;;;;;;;;5079031;28;20028;-73
2023/04/17 11:07:34;;;;;;;2.57;1.70;;;;;;;;;;5093907;28;20523;-73
2023/04/17 11:10:00;;;;;;;2.67;1.67;;;;;;;;;;5081390;28;20282;-73
2023/04/17 11:12:26;;;;;;;3.08;1.80;;;;;;;17.40;nan;100128.19;5078615;28;20043;-72
2023/04/17 11:14:51;;;;;;;3.65;1.73;;;;;;;17.00;nan;100052.91;5075916;28;20028;-73
2023/04/17 11:17:19;;;;;;;3.67;2.53;;;;;;;16.97;nan;100045.47;5077290;28;20028;-73
2023/04/17 11:19:45;;;;;;;3.97;2.33;;;;;;;16.99;nan;100056.63;5095382;28;20067;-73
2023/04/17 11:22:10;;;;;;;4.82;1.70;;;;;;;16.98;nan;100051.59;5092680;28;20454;-72
2023/04/17 11:24:35;;;;;;;1.92;1.48;;;;;;;16.96;nan;100062.50;5095572;27;20020;-72
2023/04/17 11:27:02;;;;;;;1.27;1.13;;;;;;;16.88;nan;100054.28;5094628;28;20032;-71
2023/04/17 11:29:27;;;;;;;1.60;1.50;;;;;;;16.82;nan;100050.09;5093820;28;20023;-72
2023/04/17 11:31:55;;;;;;;1.98;1.30;;;;;;;16.86;nan;100073.19;5096003;28;20039;-72
2023/04/17 11:34:21;;;;;;;1.65;1.40;;;;;;;16.74;nan;100054.09;5094413;28;20066;-72
2023/04/17 11:36:57;;;;;;;2.50;1.70;;;;;;;16.72;nan;100053.56;5087243;28;20389;-71
2023/04/17 11:39:32;;;;;;;3.67;1.70;;;;;;;16.79;nan;100072.72;5097198;28;20026;-72
2023/04/17 11:41:58;;;;;;;2.45;1.50;;;;;;;16.60;nan;100053.91;5095674;28;20036;-72
2023/04/17 11:44:24;;;;;;;2.80;1.90;;;;;;;16.67;nan;100065.03;5077572;28;20092;-72
2023/04/17 11:46:51;;;;;;;3.80;2.05;;;;;;;16.67;nan;100064.22;5094215;28;20044;-72
2023/04/17 11:49:26;;;;;;;4.25;1.92;;;;;;;16.59;nan;100057.59;5094085;27;20098;-73
2023/04/17 11:51:53;;;;;;;5.53;1.60;;;;;;;16.55;nan;100060.03;5082775;28;20485;-73
2023/04/17 11:54:31;;;;;;;3.67;2.05;;;;;;;16.55;nan;100067.22;5099027;28;20080;-73
2023/04/17 11:57:14;;;;;;;4.50;1.95;;;;;;;16.47;nan;100063.25;5095850;28;20371;-73
2023/04/17 11:59:41;;;;;;;2.22;1.80;;;;;;;16.50;nan;100077.88;5080373;28;20182;-73
2023/04/17 12:02:07;;;;;;;1.77;1.40;;;;;;;16.49;nan;100074.38;5077571;28;20415;-72
2023/04/17 12:04:35;;;;;;;4.05;1.60;;;;;;;16.52;nan;100081.03;5095913;28;20023;-71
2023/04/17 12:07:05;;;;;;;4.03;1.85;;;;;;;16.47;nan;100071.22;5094404;28;20063;-69
2023/04/17 12:09:31;;;;;;;2.22;1.50;;;;;;;16.57;nan;100073.06;5093083;27;20051;-72
2023/04/17 12:11:58;;;;;;;2.22;1.63;;;;;;;16.52;nan;100070.38;5097002;28;20048;-73
2023/04/17 12:14:23;;;;;;;1.85;1.60;;;;;;;16.49;nan;100050.47;5076933;28;20020;-73
2023/04/17 12:16:50;;;;;;;2.38;1.80;;;;;;;16.52;nan;100054.44;5097956;27;20038;-72
2023/04/17 12:19:16;;;;;;;3.40;1.77;;;;;;;16.62;nan;100062.41;5079736;28;20039;-72
2023/04/17 12:21:46;;;;;;;2.30;1.50;;;;;;;16.60;nan;100059.22;5086275;27;20498;-72
2023/04/17 12:24:12;;;;;;;3.60;2.08;;;;;;;16.52;nan;100041.16;5093045;28;20050;-72
2023/04/17 12:26:48;;;;;;;3.85;2.65;;;;;;;16.55;nan;100040.63;5093769;28;20023;-73
2023/04/17 12:29:14;;;;;;;5.88;3.38;;;;;;;16.62;nan;100054.41;5077863;28;20015;-73
2023/04/17 12:31:40;;;;;;;6.28;3.65;;;;;;;16.50;nan;100033.47;5094539;28;20050;-73
2023/04/17 12:34:06;;;;;;;3.03;2.30;;;;;;;16.56;nan;100050.19;5098165;27;20665;-74
2023/04/17 12:36:31;;;;;;;2.92;2.47;;;;;;;16.44;nan;100033.75;5073812;27;20555;-74
2023/04/17 12:38:56;;;;;;;5.70;2.70;;;;;;;16.54;nan;100047.81;5094728;28;20035;-74
2023/04/17 12:41:24;;;;;;;2.65;2.08;;;;;;;16.44;nan;100028.44;5093556;28;20534;-71
2023/04/17 12:43:49;;;;;;;3.35;2.33;;;;;;;16.57;nan;100041.16;5095109;28;20558;-73
2023/04/17 12:46:15;;;;;;;2.83;2.25;;;;;;;16.51;nan;100023.63;5095599;27;20024;-73
2023/04/17 12:48:40;;;;;;;3.50;2.30;;;;;;;16.49;nan;100018.56;5093270;27;20027;-73
2023/04/17 12:51:06;;;;;;;5.85;2.30;;;;;;;16.58;nan;100024.13;5096923;28;20020;-73
2023/04/17 12:53:31;;;;;;;3.92;1.83;;;;;;;16.63;nan;100021.44;5097388;27;20158;-73
2023/04/17 12:55:57;;;;;;;3.70;1.88;;;;;;;16.67;nan;100022.50;5092785;27;20086;-74
2023/04/17 12:58:22;;;;;;;3.38;1.90;;;;;;;16.69;nan;100016.88;5092286;28;20516;-72
2023/04/17 13:00:48;;;;;;;5.57;2.33;;;;;;;16.78;nan;100013.41;5090029;28;20024;-72
2023/04/17 13:03:13;;;;;;;3.45;2.10;;;;;;;16.77;nan;100000.34;5094575;27;20024;-73
2023/04/17 13:05:39;;;;;;;4.25;2.13;;;;;;;16.87;nan;100008.28;5086276;28;20024;-72
2023/04/17 13:08:04;;;;;;;4.07;2.30;;;;;;;16.88;nan;100001.91;5096176;28;20023;-72
2023/04/17 13:10:30;;;;;;;4.68;2.40;;;;;;;16.95;nan;100001.59;5073361;28;20035;-71
2023/04/17 13:12:55;;;;;;;4.95;2.15;;;;;;;17.09;nan;100013.19;5061623;28;20084;-73
2023/04/17 13:15:21;;;;;;;4.57;2.35;;;;;;;17.13;nan;100008.13;5075304;28;20108;-73
2023/04/17 13:17:46;;;;;;;3.35;2.20;;;;;;;17.09;nan;99991.91;5095216;28;20452;-73
2023/04/17 13:20:12;;;;;;;29.73;3.60;;;;;;;17.13;nan;99990.28;5092962;28;20023;-73
2023/04/17 13:22:38;;;;;;;3.28;1.90;;;;;;;17.24;nan;99991.00;5089208;28;20065;-73
2023/04/17 13:25:04;;;;;;;6.57;2.38;;;;;;;17.40;nan;99999.63;5075038;28;20061;-66
2023/04/17 13:27:30;;;;;;;3.80;2.22;;;;;;;17.42;nan;99995.63;5090665;28;20065;-72
2023/04/17 13:29:55;;;;;;;3.92;2.30;;;;;;;17.48;nan;99987.59;5077467;28;20649;-72
2023/04/17 13:32:21;;;;;;;4.70;2.80;;;;;;;17.42;nan;99973.53;5092863;28;20027;-74
2023/04/17 13:34:46;;;;;;;5.22;2.22;;;;;;;17.58;nan;99980.31;5084949;28;20028;-73
2023/04/17 13:37:13;;;;;;;3.78;2.13;;;;;;;17.64;nan;99992.47;5093912;28;20028;-72
2023/04/17 13:39:39;;;;;;;3.58;1.90;;;;;;;17.60;nan;99986.16;5092579;28;20032;-72
2023/04/17 13:42:05;;;;;;;5.00;2.33;;;;;;;17.61;nan;99993.06;5093201;28;20100;-70
2023/04/17 13:44:31;;;;;;;13.50;2.78;;;;;;;17.57;nan;99986.69;5093672;28;20103;-72
2023/04/17 13:46:56;;;;;;;4.90;2.67;;;;;;;17.70;nan;99995.13;5093297;28;20024;-73
2023/04/17 13:49:22;;;;;;;3.08;2.20;;;;;;;17.68;nan;99991.94;5078292;28;20016;-73
2023/04/17 13:51:47;;;;;;;7.25;2.40;;;;;;;17.75;nan;100000.38;5076433;28;20126;-73